createdAt,value
2023-04-19T00:00:04.281Z,9.719277
2023-04-19T00:01:04.300Z,9.719186
2023-04-19T00:02:04.341Z,9.719165
2023-04-19T00:03:04.302Z,9.719039
2023-04-19T00:04:04.336Z,9.719111
2023-04-19T00:05:04.315Z,9.719223
2023-04-19T00:06:04.225Z,9.719230
2023-04-19T00:07:04.189Z,9.719129
2023-04-19T00:08:04.194Z,9.719267
2023-04-19T00:09:04.169Z,9.719256
2023-04-19T00:10:04.184Z,9.719117
2023-04-19T00:11:04.187Z,9.719015
2023-04-19T00:12:04.167Z,9.719000
2023-04-19T00:13:04.132Z,9.719049
2023-04-19T00:14:04.156Z,9.719006
2023-04-19T00:15:04.102Z,9.719152
2023-04-19T00:16:04.102Z,9.719242
2023-04-19T00:17:04.175Z,9.719275
2023-04-19T00:18:04.144Z,9.719194
2023-04-19T00:19:04.122Z,9.719265
2023-04-19T00:20:04.052Z,9.719205
2023-04-19T00:21:04.051Z,9.719275
2023-04-19T00:22:04.058Z,9.719221
2023-04-19T00:23:04.038Z,9.718944
2023-04-19T00:24:04.030Z,9.719213
2023-04-19T00:25:04.018Z,9.719172
2023-04-19T00:26:04.004Z,9.719261
2023-04-19T00:27:03.978Z,9.719355
2023-04-19T00:28:04.000Z,9.719270
2023-04-19T00:29:04.003Z,9.719377
2023-04-19T00:30:03.970Z,9.719307
2023-04-19T00:31:04.008Z,9.719370
2023-04-19T00:32:04.017Z,9.719380
2023-04-19T00:33:04.021Z,9.719419
2023-04-19T00:34:03.939Z,9.719172
2023-04-19T00:35:03.908Z,9.719245
2023-04-19T00:36:03.905Z,9.719211
2023-04-19T00:37:03.894Z,9.719118
2023-04-19T00:38:03.903Z,9.719195
2023-04-19T00:39:03.884Z,9.719137
2023-04-19T00:40:03.879Z,9.719191
2023-04-19T00:41:03.850Z,9.719044
2023-04-19T00:42:03.870Z,9.719157
2023-04-19T00:43:03.861Z,9.719110
2023-04-19T00:44:03.818Z,9.719241
2023-04-19T00:45:03.814Z,9.719259
2023-04-19T00:46:03.843Z,9.719352
2023-04-19T00:47:03.790Z,9.719241
2023-04-19T00:48:03.898Z,9.719082
2023-04-19T00:49:03.787Z,9.719296
2023-04-19T00:50:03.788Z,9.719413
2023-04-19T00:51:03.756Z,9.719327
2023-04-19T00:52:03.723Z,9.719427
2023-04-19T00:53:03.733Z,9.719377
2023-04-19T00:54:03.748Z,9.719125
2023-04-19T00:55:03.742Z,9.719243
2023-04-19T00:56:03.704Z,9.719273
2023-04-19T00:57:03.702Z,9.719274
2023-04-19T00:58:03.673Z,9.719327
2023-04-19T00:59:03.677Z,9.719343
2023-04-19T01:00:03.692Z,9.719509
2023-04-19T01:01:03.680Z,9.719549
2023-04-19T01:02:03.690Z,9.719765
2023-04-19T01:03:03.872Z,9.719706
2023-04-19T01:04:03.741Z,9.719784
2023-04-19T01:05:03.609Z,9.719655
2023-04-19T01:06:03.584Z,9.719536
2023-04-19T01:07:03.585Z,9.719396
2023-04-19T01:08:03.594Z,9.719514
2023-04-19T01:09:03.576Z,9.719663
2023-04-19T01:10:03.564Z,9.719804
2023-04-19T01:11:03.554Z,9.719691
2023-04-19T01:12:03.546Z,9.719460
2023-04-19T01:13:03.528Z,9.718861
2023-04-19T01:14:03.502Z,9.719212
2023-04-19T01:15:03.517Z,9.719775
2023-04-19T01:16:03.558Z,9.719876
2023-04-19T01:17:03.498Z,9.719786
2023-04-19T01:18:03.552Z,9.718786
2023-04-19T01:19:03.512Z,9.719110
2023-04-19T01:20:03.462Z,9.719093
2023-04-19T01:21:03.451Z,9.719390
2023-04-19T01:22:03.464Z,9.719663
2023-04-19T01:23:03.430Z,9.719663
2023-04-19T01:24:03.485Z,9.719560
2023-04-19T01:25:03.420Z,9.719525
2023-04-19T01:26:03.396Z,9.719506
2023-04-19T01:27:03.414Z,9.719332
2023-04-19T01:28:03.425Z,9.719371
2023-04-19T01:29:03.389Z,9.719185
2023-04-19T01:30:03.392Z,9.718907
2023-04-19T01:31:03.396Z,9.718952
2023-04-19T01:32:03.393Z,9.718965
2023-04-19T01:33:03.429Z,9.718987
2023-04-19T01:34:03.353Z,9.719098
2023-04-19T01:35:03.309Z,9.719151
2023-04-19T01:36:03.333Z,9.719288
2023-04-19T01:37:03.325Z,9.719276
2023-04-19T01:38:03.308Z,9.719097
2023-04-19T01:39:03.273Z,9.719260
2023-04-19T01:40:03.343Z,9.719228
2023-04-19T01:41:03.283Z,9.719199
2023-04-19T01:42:03.267Z,9.719279
2023-04-19T01:43:03.253Z,9.719249
2023-04-19T01:44:03.235Z,9.719218
2023-04-19T01:45:03.257Z,9.719209
2023-04-19T01:46:03.254Z,9.719216
2023-04-19T01:47:03.259Z,9.719229
2023-04-19T01:48:03.279Z,9.719133
2023-04-19T01:49:03.216Z,9.719206
2023-04-19T01:50:03.210Z,9.719220
2023-04-19T01:51:03.161Z,9.719266
2023-04-19T01:52:03.163Z,9.719248
2023-04-19T01:53:03.162Z,9.719257
2023-04-19T01:54:03.149Z,9.719194
2023-04-19T01:55:03.138Z,9.719254
2023-04-19T01:56:03.127Z,9.719217
2023-04-19T01:57:03.116Z,9.719311
2023-04-19T01:58:03.110Z,9.719260
2023-04-19T01:59:03.108Z,9.719192
2023-04-19T02:00:03.101Z,9.719287
2023-04-19T02:01:03.092Z,9.719183
2023-04-19T02:02:03.212Z,9.719180
2023-04-19T02:03:03.171Z,9.719182
2023-04-19T02:04:03.166Z,9.719144
2023-04-19T02:05:03.052Z,9.719199
2023-04-19T02:06:03.049Z,9.719259
2023-04-19T02:07:03.059Z,9.719214
2023-04-19T02:08:03.014Z,9.719117
2023-04-19T02:09:02.997Z,9.719204
2023-04-19T02:10:03.015Z,9.719234
2023-04-19T02:11:02.962Z,9.719296
2023-04-19T02:12:02.956Z,9.719275
2023-04-19T02:13:02.984Z,9.719231
2023-04-19T02:14:02.970Z,9.719418
2023-04-19T02:15:02.936Z,9.719297
2023-04-19T02:16:02.969Z,9.719365
2023-04-19T02:17:02.930Z,9.719327
2023-04-19T02:18:02.937Z,9.719424
2023-04-19T02:19:02.888Z,9.719367
2023-04-19T02:20:02.870Z,9.719395
2023-04-19T02:21:02.863Z,9.719311
2023-04-19T02:22:02.863Z,9.719275
2023-04-19T02:23:02.862Z,9.719213
2023-04-19T02:24:02.860Z,9.719357
2023-04-19T02:25:02.825Z,9.719257
2023-04-19T02:26:03.813Z,9.719209
2023-04-19T02:27:02.811Z,9.719214
2023-04-19T02:28:02.800Z,9.719179
2023-04-19T02:29:04.016Z,9.719117
2023-04-19T02:30:02.787Z,9.719118
2023-04-19T02:31:02.777Z,9.718994
2023-04-19T02:32:02.821Z,9.719052
2023-04-19T02:33:02.836Z,9.719143
2023-04-19T02:34:02.747Z,9.719163
2023-04-19T02:35:02.726Z,9.719170
2023-04-19T02:36:02.707Z,9.719131
2023-04-19T02:37:02.717Z,9.719127
2023-04-19T02:38:02.686Z,9.719165
2023-04-19T02:39:02.681Z,9.719167
2023-04-19T02:40:02.670Z,9.719099
2023-04-19T02:41:02.664Z,9.719119
2023-04-19T02:42:02.688Z,9.719122
2023-04-19T02:43:02.673Z,9.719178
2023-04-19T02:44:02.641Z,9.719169
2023-04-19T02:45:02.624Z,9.719264
2023-04-19T02:46:02.625Z,9.719152
2023-04-19T02:47:02.616Z,9.719121
2023-04-19T02:48:02.694Z,9.719130
2023-04-19T02:49:34.508Z,9.719144
2023-04-19T02:50:02.571Z,9.719114
2023-04-19T02:51:03.566Z,9.719071
2023-04-19T02:52:02.558Z,9.719114
2023-04-19T02:53:02.539Z,9.719132
2023-04-19T02:54:02.553Z,9.719136
2023-04-19T02:55:02.553Z,9.719039
2023-04-19T02:56:02.517Z,9.719166
2023-04-19T02:57:02.508Z,9.719194
2023-04-19T02:58:02.503Z,9.719221
2023-04-19T02:59:02.488Z,9.719191
2023-04-19T03:00:02.520Z,9.719135
2023-04-19T03:01:02.497Z,9.719164
2023-04-19T03:02:02.482Z,9.719116
2023-04-19T03:03:02.559Z,9.719135
2023-04-19T03:04:02.482Z,9.719132
2023-04-19T03:05:02.421Z,9.719151
2023-04-19T03:06:02.425Z,9.719152
2023-04-19T03:07:02.394Z,9.719123
2023-04-19T03:08:02.382Z,9.719160
2023-04-19T03:09:02.399Z,9.719135
2023-04-19T03:10:02.375Z,9.719122
2023-04-19T03:11:02.362Z,9.719164
2023-04-19T03:12:02.353Z,9.719069
2023-04-19T03:13:02.335Z,9.718992
2023-04-19T03:14:02.324Z,9.719004
2023-04-19T03:15:03.336Z,9.719056
2023-04-19T03:16:02.371Z,9.719124
2023-04-19T03:17:02.335Z,9.719119
2023-04-19T03:18:02.306Z,9.719108
2023-04-19T03:19:02.281Z,9.719152
2023-04-19T03:20:02.311Z,9.719129
2023-04-19T03:21:02.254Z,9.719131
2023-04-19T03:22:02.280Z,9.719141
2023-04-19T03:23:03.236Z,9.719110
2023-04-19T03:24:02.281Z,9.718977
2023-04-19T03:25:02.235Z,9.718948
2023-04-19T03:26:02.217Z,9.718987
2023-04-19T03:27:02.251Z,9.719057
2023-04-19T03:28:02.216Z,9.719102
2023-04-19T03:29:02.215Z,9.719070
2023-04-19T03:30:02.174Z,9.718995
2023-04-19T03:31:02.159Z,9.718713
2023-04-19T03:32:02.162Z,9.718977
2023-04-19T03:33:02.180Z,9.719170
2023-04-19T03:34:02.131Z,9.719145
2023-04-19T03:35:02.162Z,9.719131
2023-04-19T03:36:02.136Z,9.719144
2023-04-19T03:37:02.186Z,9.719009
2023-04-19T03:38:02.089Z,9.719192
2023-04-19T03:39:02.089Z,9.719116
2023-04-19T03:40:02.166Z,9.719114
2023-04-19T03:41:02.073Z,9.718875
2023-04-19T03:42:02.115Z,9.718931
2023-04-19T03:43:02.049Z,9.718834
2023-04-19T03:44:02.044Z,9.718560
2023-04-19T03:45:02.036Z,9.719055
2023-04-19T03:46:02.036Z,9.719055
2023-04-19T03:47:01.993Z,9.719095
2023-04-19T03:48:03.160Z,9.719110
2023-04-19T03:49:02.998Z,9.719054
2023-04-19T03:50:01.964Z,9.718923
2023-04-19T03:51:02.005Z,9.718977
2023-04-19T03:52:01.966Z,9.719081
2023-04-19T03:53:01.963Z,9.719012
2023-04-19T03:54:01.989Z,9.719009
2023-04-19T03:55:01.960Z,9.719139
2023-04-19T03:56:01.905Z,9.719240
2023-04-19T03:57:01.896Z,9.719151
2023-04-19T03:58:01.885Z,9.718819
2023-04-19T03:59:01.880Z,9.719130
2023-04-19T04:00:01.887Z,9.719281
2023-04-19T04:01:01.839Z,9.719146
2023-04-19T04:02:02.082Z,9.718860
2023-04-19T04:03:01.908Z,9.719007
2023-04-19T04:04:04.815Z,9.719222
2023-04-19T04:05:02.952Z,9.719061
2023-04-19T04:06:01.862Z,9.719080
2023-04-19T04:07:01.789Z,9.719185
2023-04-19T04:08:01.772Z,9.719084
2023-04-19T04:09:01.778Z,9.719065
2023-04-19T04:10:01.927Z,9.718855
2023-04-19T04:11:01.752Z,9.719073
2023-04-19T04:12:01.809Z,9.718972
2023-04-19T04:13:01.768Z,9.719095
2023-04-19T04:14:01.729Z,9.719402
2023-04-19T04:15:01.701Z,9.719105
2023-04-19T04:16:02.825Z,9.719192
2023-04-19T04:17:01.726Z,9.719438
2023-04-19T04:18:01.756Z,9.719426
2023-04-19T04:19:01.798Z,9.719334
2023-04-19T04:20:01.679Z,9.718820
2023-04-19T04:21:01.644Z,9.719071
2023-04-19T04:22:01.671Z,9.719485
2023-04-19T04:23:01.635Z,9.719373
2023-04-19T04:24:01.651Z,9.719316
2023-04-19T04:25:01.635Z,9.719353
2023-04-19T04:26:01.655Z,9.719387
2023-04-19T04:27:01.594Z,9.719384
2023-04-19T04:28:01.579Z,9.719655
2023-04-19T04:29:01.566Z,9.719555
2023-04-19T04:30:01.663Z,9.719184
2023-04-19T04:31:01.564Z,9.719318
2023-04-19T04:32:01.578Z,9.719359
2023-04-19T04:33:01.573Z,9.719328
2023-04-19T04:34:01.539Z,9.719482
2023-04-19T04:35:01.515Z,9.719326
2023-04-19T04:36:02.531Z,9.719572
2023-04-19T04:37:01.548Z,9.719256
2023-04-19T04:38:06.265Z,9.719332
2023-04-19T04:39:02.491Z,9.719156
2023-04-19T04:40:01.483Z,9.719172
2023-04-19T04:41:01.466Z,9.719138
2023-04-19T04:42:01.488Z,9.718990
2023-04-19T04:43:01.487Z,9.718828
2023-04-19T04:45:02.450Z,9.718975
2023-04-19T04:46:01.506Z,9.718938
2023-04-19T04:47:01.413Z,9.718961
2023-04-19T04:48:01.475Z,9.719014
2023-04-19T04:49:01.402Z,9.719003
2023-04-19T04:50:01.417Z,9.718854
2023-04-19T04:51:01.424Z,9.718830
2023-04-19T04:52:02.377Z,9.718962
2023-04-19T04:53:01.375Z,9.719239
2023-04-19T04:54:01.352Z,9.719212
2023-04-19T04:55:01.340Z,9.718970
2023-04-19T04:56:01.346Z,9.719168
2023-04-19T04:57:01.407Z,9.719080
2023-04-19T04:58:01.402Z,9.719061
2023-04-19T04:59:01.329Z,9.719033
2023-04-19T05:00:01.288Z,9.719089
2023-04-19T05:01:01.274Z,9.719070
2023-04-19T05:02:01.337Z,9.718896
2023-04-19T05:03:01.380Z,9.719140
2023-04-19T05:04:01.441Z,9.719176
2023-04-19T05:05:01.264Z,9.719158
2023-04-19T05:06:01.220Z,9.719111
2023-04-19T05:07:01.281Z,9.718929
2023-04-19T05:08:01.231Z,9.719025
2023-04-19T05:09:01.189Z,9.719045
2023-04-19T05:10:01.192Z,9.718992
2023-04-19T05:11:01.179Z,9.718929
2023-04-19T05:12:01.174Z,9.719198
2023-04-19T05:13:01.182Z,9.719313
2023-04-19T05:14:01.161Z,9.719159
2023-04-19T05:15:01.134Z,9.719190
2023-04-19T05:16:01.149Z,9.719198
2023-04-19T05:17:01.106Z,9.719273
2023-04-19T05:18:01.216Z,9.719285
2023-04-19T05:19:01.085Z,9.719149
2023-04-19T05:20:01.105Z,9.719051
2023-04-19T05:21:01.090Z,9.719165
2023-04-19T05:22:01.089Z,9.719238
2023-04-19T05:23:01.045Z,9.719189
2023-04-19T05:24:01.070Z,9.719251
2023-04-19T05:25:01.028Z,9.719224
2023-04-19T05:26:01.041Z,9.719277
2023-04-19T05:27:01.024Z,9.719221
2023-04-19T05:28:01.001Z,9.719166
2023-04-19T05:29:01.017Z,9.719189
2023-04-19T05:30:00.982Z,9.719192
2023-04-19T05:31:01.014Z,9.719271
2023-04-19T05:32:00.986Z,9.719108
2023-04-19T05:33:00.984Z,9.719261
2023-04-19T05:34:00.981Z,9.719255
2023-04-19T05:35:00.949Z,9.719233
2023-04-19T05:36:00.928Z,9.719277
2023-04-19T05:37:00.919Z,9.719216
2023-04-19T05:38:00.921Z,9.719196
2023-04-19T05:39:00.906Z,9.719171
2023-04-19T05:40:00.941Z,9.719153
2023-04-19T05:41:00.865Z,9.719151
2023-04-19T05:42:00.870Z,9.719259
2023-04-19T05:43:00.871Z,9.719168
2023-04-19T05:44:00.852Z,9.719110
2023-04-19T05:45:00.815Z,9.719178
2023-04-19T05:46:00.857Z,9.719168
2023-04-19T05:47:00.817Z,9.719156
2023-04-19T05:48:00.852Z,9.719104
2023-04-19T05:49:00.805Z,9.719140
2023-04-19T05:50:00.786Z,9.719064
2023-04-19T05:51:00.771Z,9.719060
2023-04-19T05:52:01.792Z,9.719176
2023-04-19T05:53:00.785Z,9.719136
2023-04-19T05:54:00.739Z,9.719033
2023-04-19T05:55:00.745Z,9.719365
2023-04-19T05:56:00.730Z,9.719159
2023-04-19T05:57:00.725Z,9.718903
2023-04-19T05:58:00.727Z,9.718768
2023-04-19T05:59:00.711Z,9.719016
2023-04-19T06:01:01.719Z,9.719305
2023-04-19T06:02:00.757Z,9.719315
2023-04-19T06:03:00.894Z,9.719156
2023-04-19T06:04:00.821Z,9.719234
2023-04-19T06:05:02.742Z,9.719324
2023-04-19T06:06:01.672Z,9.719193
2023-04-19T06:07:00.601Z,9.719397
2023-04-19T06:08:02.696Z,9.719210
2023-04-19T06:09:01.602Z,9.719253
2023-04-19T06:10:00.631Z,9.719282
2023-04-19T06:11:05.193Z,9.719116
2023-04-19T06:12:02.562Z,9.719122
2023-04-19T06:13:00.561Z,9.719141
2023-04-19T06:14:00.559Z,9.718922
2023-04-19T06:15:00.559Z,9.718876
2023-04-19T06:16:00.529Z,9.719042
2023-04-19T06:17:00.498Z,9.719203
2023-04-19T06:18:00.537Z,9.719186
2023-04-19T06:19:00.523Z,9.719047
2023-04-19T06:20:00.462Z,9.719108
2023-04-19T06:21:00.499Z,9.719117
2023-04-19T06:22:00.451Z,9.719056
2023-04-19T06:23:00.436Z,9.719398
2023-04-19T06:24:00.435Z,9.719070
2023-04-19T06:25:00.424Z,9.719119
2023-04-19T06:26:00.426Z,9.719341
2023-04-19T06:27:00.480Z,9.719253
2023-04-19T06:28:00.418Z,9.719308
2023-04-19T06:29:00.416Z,9.719245
2023-04-19T06:30:00.375Z,9.719155
2023-04-19T06:31:00.366Z,9.719094
2023-04-19T06:32:00.414Z,9.719195
2023-04-19T06:33:00.407Z,9.719215
2023-04-19T06:34:00.383Z,9.719304
2023-04-19T06:35:00.317Z,9.719282
2023-04-19T06:36:00.317Z,9.719176
2023-04-19T06:37:00.305Z,9.719176
2023-04-19T06:38:00.291Z,9.719262
2023-04-19T06:39:00.319Z,9.719227
2023-04-19T06:40:00.312Z,9.719253
2023-04-19T06:41:00.261Z,9.719364
2023-04-19T06:42:00.270Z,9.719242
2023-04-19T06:43:00.245Z,9.719298
2023-04-19T06:44:00.241Z,9.719419
2023-04-19T06:45:00.253Z,9.719560
2023-04-19T06:46:00.366Z,9.719499
2023-04-19T06:47:00.206Z,9.719479
2023-04-19T06:48:00.302Z,9.719479
2023-04-19T06:49:00.186Z,9.719529
2023-04-19T06:50:00.194Z,9.719516
2023-04-19T06:51:00.240Z,9.719358
2023-04-19T06:52:00.209Z,9.719322
2023-04-19T06:53:00.147Z,9.719422
2023-04-19T06:54:00.194Z,9.719314
2023-04-19T06:55:00.137Z,9.719218
2023-04-19T06:56:00.135Z,9.719224
2023-04-19T06:57:00.129Z,9.719280
2023-04-19T06:58:00.114Z,9.719325
2023-04-19T06:59:00.110Z,9.719419
2023-04-19T07:00:00.083Z,9.719413
2023-04-19T07:01:00.129Z,9.719440
2023-04-19T07:02:00.159Z,9.719563
2023-04-19T07:03:00.161Z,9.719516
2023-04-19T07:04:00.268Z,9.719345
2023-04-19T07:05:00.036Z,9.719400
2023-04-19T07:06:00.009Z,9.719310
2023-04-19T07:07:00.004Z,9.719269
2023-04-19T07:08:00.118Z,9.719325
2023-04-19T07:09:00.322Z,9.719257
2023-04-19T07:10:00.005Z,9.719358
2023-04-19T07:11:00.985Z,9.719258
2023-04-19T07:11:59.972Z,9.719444
2023-04-19T07:12:59.943Z,9.719334
2023-04-19T07:13:59.932Z,9.719279
2023-04-19T07:14:59.953Z,9.719248
2023-04-19T07:16:00.011Z,9.719272
2023-04-19T07:16:59.918Z,9.719132
2023-04-19T07:17:59.913Z,9.719095
2023-04-19T07:18:59.929Z,9.719131
2023-04-19T07:19:59.861Z,9.719009
2023-04-19T07:20:59.895Z,9.719004
2023-04-19T07:21:59.880Z,9.719170
2023-04-19T07:22:59.846Z,9.719193
2023-04-19T07:23:59.913Z,9.719229
2023-04-19T07:24:59.823Z,9.719064
2023-04-19T07:25:59.829Z,9.719120
2023-04-19T07:26:59.819Z,9.719172
2023-04-19T07:27:59.785Z,9.719164
2023-04-19T07:28:59.794Z,9.719172
2023-04-19T07:29:59.776Z,9.719193
2023-04-19T07:30:59.757Z,9.719214
2023-04-19T07:32:00.024Z,9.719221
2023-04-19T07:32:59.783Z,9.719224
2023-04-19T07:33:59.750Z,9.719131
2023-04-19T07:34:59.755Z,9.719193
2023-04-19T07:35:59.713Z,9.719152
2023-04-19T07:36:59.698Z,9.719261
2023-04-19T07:37:59.718Z,9.719356
2023-04-19T07:38:59.703Z,9.719259
2023-04-19T07:39:59.708Z,9.719220
2023-04-19T07:40:59.685Z,9.719251
2023-04-19T07:41:59.653Z,9.719266
2023-04-19T07:42:59.662Z,9.719114
2023-04-19T07:43:59.661Z,9.719114
2023-04-19T07:44:59.623Z,9.719131
2023-04-19T07:45:59.682Z,9.719225
2023-04-19T07:46:59.786Z,9.719285
2023-04-19T07:47:59.655Z,9.719381
2023-04-19T07:48:59.584Z,9.719308
2023-04-19T07:49:59.571Z,9.719268
2023-04-19T07:50:59.575Z,9.719247
2023-04-19T07:51:59.586Z,9.719259
2023-04-19T07:52:59.567Z,9.719204
2023-04-19T07:53:59.534Z,9.719204
2023-04-19T07:54:59.550Z,9.719201
2023-04-19T07:55:59.509Z,9.719213
2023-04-19T07:56:59.514Z,9.719142
2023-04-19T07:57:59.494Z,9.719081
2023-04-19T07:59:07.680Z,9.719215
2023-04-19T08:00:01.516Z,9.719221
2023-04-19T08:00:59.505Z,9.719258
2023-04-19T08:01:59.537Z,9.719227
2023-04-19T08:02:59.627Z,9.719295
2023-04-19T08:03:59.571Z,9.719287
2023-04-19T08:04:59.640Z,9.719292
2023-04-19T08:05:59.418Z,9.719337
2023-04-19T08:06:59.396Z,9.719277
2023-04-19T08:07:59.411Z,9.719260
2023-04-19T08:08:59.412Z,9.719170
2023-04-19T08:09:59.386Z,9.719299
2023-04-19T08:11:00.730Z,9.719328
2023-04-19T08:11:59.415Z,9.719318
2023-04-19T08:13:05.953Z,9.719274
2023-04-19T08:14:09.397Z,9.719378
2023-04-19T08:15:07.795Z,9.719290
2023-04-19T08:16:20.330Z,9.719287
2023-04-19T08:18:00.307Z,9.719234
2023-04-19T08:18:59.305Z,9.719310
2023-04-19T08:19:59.288Z,9.719361
2023-04-19T08:20:59.259Z,9.719356
2023-04-19T08:21:59.292Z,9.719390
2023-04-19T08:23:02.437Z,9.719266
2023-04-19T08:24:01.275Z,9.719337
2023-04-19T08:24:59.232Z,9.719270
2023-04-19T08:25:59.285Z,9.719224
2023-04-19T08:27:00.258Z,9.719252
2023-04-19T08:28:00.214Z,9.719323
2023-04-19T08:28:59.195Z,9.719346
2023-04-19T08:29:59.172Z,9.719169
2023-04-19T08:30:59.171Z,9.719167
2023-04-19T08:31:59.197Z,9.719409
2023-04-19T08:32:59.195Z,9.719341
2023-04-19T08:33:59.126Z,9.719145
2023-04-19T08:34:59.131Z,9.719467
2023-04-19T08:35:59.116Z,9.719452
2023-04-19T08:37:03.881Z,9.719347
2023-04-19T08:38:02.586Z,9.719296
2023-04-19T08:39:06.679Z,9.719271
2023-04-19T08:40:01.077Z,9.719162
2023-04-19T08:40:59.066Z,9.718991
2023-04-19T08:42:06.984Z,9.718989
2023-04-19T08:43:01.051Z,9.719115
2023-04-19T08:43:59.065Z,9.719472
2023-04-19T08:45:23.428Z,9.719804
2023-04-19T08:46:00.078Z,9.719254
2023-04-19T08:46:59.024Z,9.719230
2023-04-19T08:48:01.231Z,9.719136
2023-04-19T08:49:00.034Z,9.719103
2023-04-19T08:50:35.881Z,9.719169
2023-04-19T08:51:05.132Z,9.719272
2023-04-19T08:52:00.962Z,9.719214
2023-04-19T08:53:05.212Z,9.719294
2023-04-19T08:53:59.966Z,9.719277
2023-04-19T08:54:58.935Z,9.719139
2023-04-19T08:56:08.746Z,9.719249
2023-04-19T08:57:00.920Z,9.719180
2023-04-19T08:57:58.898Z,9.719100
2023-04-19T08:59:11.799Z,9.719005
2023-04-19T09:00:00.896Z,9.719047
2023-04-19T09:00:58.923Z,9.719217
2023-04-19T09:01:58.912Z,9.719128
2023-04-19T09:02:59.142Z,9.719139
2023-04-19T09:04:03.221Z,9.719261
2023-04-19T09:05:01.060Z,9.719193
2023-04-19T09:05:59.012Z,9.719214
2023-04-19T09:06:58.825Z,9.719209
2023-04-19T09:07:58.803Z,9.719098
2023-04-19T09:08:58.794Z,9.719180
2023-04-19T09:10:02.857Z,9.719083
2023-04-19T09:11:00.783Z,9.719140
2023-04-19T09:11:58.782Z,9.719243
2023-04-19T09:12:58.742Z,9.719126
2023-04-19T09:13:58.737Z,9.719130
2023-04-19T09:15:02.280Z,9.719144
2023-04-19T09:15:59.744Z,9.719149
2023-04-19T09:16:58.738Z,9.719169
2023-04-19T09:17:58.832Z,9.719249
2023-04-19T09:19:11.428Z,9.719145
2023-04-19T09:19:58.741Z,9.719242
2023-04-19T09:20:58.921Z,9.719108
2023-04-19T09:21:58.680Z,9.719192
2023-04-19T09:22:58.650Z,9.719414
2023-04-19T09:23:58.651Z,9.719496
2023-04-19T09:26:15.079Z,9.719213
2023-04-19T09:27:00.625Z,9.718951
2023-04-19T09:27:58.593Z,9.719022
2023-04-19T09:28:58.612Z,9.719069
2023-04-19T09:29:58.605Z,9.719297
2023-04-19T09:31:10.686Z,9.719364
2023-04-19T09:32:00.679Z,9.719372
2023-04-19T09:32:58.609Z,9.719323
2023-04-19T09:33:58.544Z,9.719348
2023-04-19T09:34:58.617Z,9.719256
2023-04-19T09:35:58.882Z,9.719272
2023-04-19T09:37:08.938Z,9.719193
2023-04-19T09:38:06.253Z,9.719410
2023-04-19T09:39:00.563Z,9.719568
2023-04-19T09:39:58.499Z,9.719796
2023-04-19T09:40:58.469Z,9.719293
2023-04-19T09:41:58.475Z,9.719146
2023-04-19T09:44:15.581Z,9.718918
2023-04-19T09:45:27.530Z,9.719264
2023-04-19T09:46:00.416Z,9.719279
2023-04-19T09:46:58.630Z,9.719535
2023-04-19T09:47:58.415Z,9.719520
2023-04-19T09:48:58.814Z,9.719356
2023-04-19T09:49:58.551Z,9.719273
2023-04-19T09:51:03.145Z,9.719345
2023-04-19T09:51:59.408Z,9.719265
2023-04-19T09:52:58.347Z,9.719651
2023-04-19T09:53:58.333Z,9.719625
2023-04-19T09:54:58.435Z,9.719413
2023-04-19T09:56:02.231Z,9.719223
2023-04-19T09:57:00.871Z,9.719296
2023-04-19T09:57:58.292Z,9.719417
2023-04-19T09:59:12.678Z,9.719417
2023-04-19T10:00:00.278Z,9.719417
2023-04-19T10:01:10.816Z,9.719417
2023-04-19T10:02:00.361Z,9.719417
2023-04-19T10:02:58.840Z,9.719417
2023-04-19T10:06:06.770Z,9.719417
2023-04-19T10:07:19.341Z,9.719417
2023-04-19T10:08:00.518Z,9.719331
2023-04-19T10:08:59.211Z,9.719288
2023-04-19T10:10:05.011Z,9.719212
2023-04-19T10:11:00.188Z,9.719211
2023-04-19T10:12:06.491Z,9.719040
2023-04-19T10:13:16.145Z,9.718955
2023-04-19T10:13:59.201Z,9.718856
2023-04-19T10:14:58.148Z,9.718985
2023-04-19T10:16:04.822Z,9.719123
2023-04-19T10:17:00.170Z,9.719176
2023-04-19T10:17:58.148Z,9.719148
2023-04-19T10:18:58.109Z,9.719131
2023-04-19T10:19:58.109Z,9.719154
2023-04-19T10:20:58.101Z,9.718971
2023-04-19T10:21:58.091Z,9.718964
2023-04-19T10:22:58.052Z,9.719047
2023-04-19T10:23:58.089Z,9.719090
2023-04-19T10:24:58.043Z,9.719056
2023-04-19T10:25:58.087Z,9.719029
2023-04-19T10:26:58.034Z,9.719103
2023-04-19T10:27:58.049Z,9.719111
2023-04-19T10:28:58.059Z,9.719151
2023-04-19T10:29:58.021Z,9.719267
2023-04-19T10:30:58.021Z,9.719287
2023-04-19T10:31:58.014Z,9.719275
2023-04-19T10:32:57.990Z,9.719279
2023-04-19T10:33:58.086Z,9.719372
2023-04-19T10:34:58.944Z,9.719327
2023-04-19T10:35:57.956Z,9.719308
2023-04-19T10:36:57.914Z,9.719288
2023-04-19T10:37:57.938Z,9.719282
2023-04-19T10:38:57.921Z,9.719269
2023-04-19T10:39:58.906Z,9.719325
2023-04-19T10:40:57.882Z,9.719267
2023-04-19T10:41:57.868Z,9.719322
2023-04-19T10:42:57.850Z,9.719135
2023-04-19T10:43:57.888Z,9.719253
2023-04-19T10:44:57.838Z,9.719238
2023-04-19T10:45:57.914Z,9.719242
2023-04-19T10:46:57.816Z,9.719210
2023-04-19T10:47:57.834Z,9.719313
2023-04-19T10:48:57.814Z,9.719256
2023-04-19T10:49:57.773Z,9.719338
2023-04-19T10:50:57.789Z,9.719272
2023-04-19T10:51:57.793Z,9.719313
2023-04-19T10:52:57.786Z,9.719261
2023-04-19T10:53:57.810Z,9.719288
2023-04-19T10:54:57.742Z,9.719328
2023-04-19T10:55:57.737Z,9.719364
2023-04-19T10:56:57.751Z,9.719262
2023-04-19T10:57:57.710Z,9.719263
2023-04-19T10:58:57.704Z,9.719295
2023-04-19T10:59:57.716Z,9.719284
2023-04-19T11:00:57.725Z,9.719291
2023-04-19T11:01:57.895Z,9.719286
2023-04-19T11:02:57.787Z,9.719344
2023-04-19T11:03:57.717Z,9.719416
2023-04-19T11:04:57.645Z,9.719466
2023-04-19T11:05:57.647Z,9.719309
2023-04-19T11:06:57.621Z,9.719265
2023-04-19T11:07:57.598Z,9.719160
2023-04-19T11:08:57.619Z,9.719336
2023-04-19T11:09:57.623Z,9.719258
2023-04-19T11:10:57.589Z,9.719019
2023-04-19T11:11:57.651Z,9.719153
2023-04-19T11:12:57.550Z,9.719245
2023-04-19T11:13:57.533Z,9.719166
2023-04-19T11:14:57.818Z,9.719130
2023-04-19T11:15:57.589Z,9.719044
2023-04-19T11:16:57.726Z,9.719021
2023-04-19T11:18:11.292Z,9.719074
2023-04-19T11:18:59.506Z,9.719178
2023-04-19T11:19:57.531Z,9.719170
2023-04-19T11:20:57.527Z,9.719118
2023-04-19T11:21:57.459Z,9.719126
2023-04-19T11:22:57.470Z,9.719220
2023-04-19T11:23:57.453Z,9.719297
2023-04-19T11:24:57.447Z,9.719324
2023-04-19T11:25:58.425Z,9.719194
2023-04-19T11:26:57.423Z,9.719250
2023-04-19T11:27:57.433Z,9.719245
2023-04-19T11:28:57.410Z,9.719332
2023-04-19T11:29:57.411Z,9.719404
2023-04-19T11:30:57.423Z,9.719343
2023-04-19T11:31:57.408Z,9.719241
2023-04-19T11:32:57.454Z,9.719238
2023-04-19T11:33:57.339Z,9.719314
2023-04-19T11:34:57.333Z,9.719319
2023-04-19T11:35:57.363Z,9.719296
2023-04-19T11:36:57.317Z,9.719300
2023-04-19T11:37:57.312Z,9.719224
2023-04-19T11:38:57.294Z,9.719185
2023-04-19T11:39:57.294Z,9.719279
2023-04-19T11:40:57.278Z,9.719250
2023-04-19T11:41:57.278Z,9.719193
2023-04-19T11:42:57.325Z,9.719180
2023-04-19T11:43:57.386Z,9.719117
2023-04-19T11:44:57.239Z,9.719209
2023-04-19T11:45:57.229Z,9.719197
2023-04-19T11:46:57.486Z,9.719196
2023-04-19T11:47:57.270Z,9.719158
2023-04-19T11:48:57.206Z,9.719242
2023-04-19T11:49:57.231Z,9.719296
2023-04-19T11:50:57.191Z,9.719248